createdAt,value
2023-03-27T00:00:12.392Z,20.62
2023-03-27T00:05:14.013Z,20.35
2023-03-27T00:10:15.929Z,17.33
2023-03-27T00:15:16.799Z,24.42
2023-03-27T00:20:23.612Z,24.98
2023-03-27T00:25:28.310Z,18.65
2023-03-27T00:30:30.364Z,10.52
2023-03-27T00:35:31.545Z,15.82
2023-03-27T00:40:32.580Z,20.42
2023-03-27T00:45:34.211Z,13.82
2023-03-27T00:50:39.612Z,24.17
2023-03-27T00:55:44.332Z,25.77
2023-03-27T01:00:48.403Z,15.95
2023-03-27T01:05:50.281Z,18.17
2023-03-27T01:11:13.783Z,21.52
2023-03-27T01:22:14.813Z,21.25
2023-03-27T01:27:21.608Z,10.25
2023-03-27T01:32:42.009Z,12.80
2023-03-27T01:38:47.560Z,18.37
2023-03-27T01:43:59.129Z,14.63
2023-03-27T01:49:09.610Z,17.12
2023-03-27T01:54:23.239Z,12.73
2023-03-27T01:59:27.957Z,10.63
2023-03-27T02:04:50.794Z,10.55
2023-03-27T02:09:55.863Z,21.23
2023-03-27T02:15:24.561Z,13.90
2023-03-27T02:20:27.139Z,17.73
2023-03-27T02:25:34.888Z,13.15
2023-03-27T02:32:24.396Z,14.82
2023-03-27T02:42:40.548Z,11.12
2023-03-27T02:47:46.525Z,15.03
2023-03-27T02:52:52.806Z,15.65
2023-03-27T02:58:02.084Z,14.10
2023-03-27T03:04:09.798Z,13.77
2023-03-27T03:11:03.640Z,20.30
2023-03-27T03:16:05.356Z,14.07
2023-03-27T03:21:07.756Z,16.27
2023-03-27T03:26:08.645Z,18.00
2023-03-27T03:31:18.684Z,12.77
2023-03-27T03:36:19.746Z,16.27
2023-03-27T03:41:20.645Z,18.75
2023-03-27T03:46:22.254Z,15.35
2023-03-27T03:51:24.383Z,24.93
2023-03-27T03:56:26.997Z,21.10
2023-03-27T04:01:28.266Z,10.57
2023-03-27T04:06:36.920Z,15.38
2023-03-27T04:11:37.939Z,17.92
2023-03-27T04:16:48.755Z,18.98
2023-03-27T04:21:55.386Z,16.98
2023-03-27T04:32:18.197Z,28.83
2023-03-27T04:37:41.253Z,16.08
2023-03-27T04:43:40.999Z,15.27
2023-03-27T04:48:42.502Z,18.10
2023-03-27T04:54:06.659Z,17.20
2023-03-27T04:59:17.260Z,13.40
2023-03-27T05:04:20.416Z,22.48
2023-03-27T05:09:42.625Z,12.70
2023-03-27T05:14:44.942Z,17.25
2023-03-27T05:19:57.719Z,17.90
2023-03-27T05:24:59.093Z,13.30
2023-03-27T05:30:01.769Z,12.27
2023-03-27T05:35:04.630Z,26.77
2023-03-27T05:40:12.927Z,19.30
2023-03-27T05:45:14.757Z,27.23
2023-03-27T05:50:17.282Z,19.60
2023-03-27T05:55:19.148Z,12.93
2023-03-27T06:00:25.436Z,20.67
2023-03-27T06:05:29.284Z,22.50
2023-03-27T06:10:30.259Z,13.70
2023-03-27T06:15:46.696Z,17.10
2023-03-27T06:20:58.948Z,14.95
2023-03-27T06:26:00.294Z,20.02
2023-03-27T06:31:03.562Z,23.90
2023-03-27T06:36:14.042Z,19.42
2023-03-27T06:41:15.517Z,27.37
2023-03-27T06:46:42.632Z,24.12
2023-03-27T06:51:55.854Z,19.12
2023-03-27T06:57:00.073Z,19.80
2023-03-27T07:02:01.160Z,28.42
2023-03-27T07:07:29.041Z,21.35
2023-03-27T07:12:30.261Z,28.20
2023-03-27T07:17:42.146Z,22.00
2023-03-27T07:22:50.547Z,17.92
2023-03-27T07:28:01.355Z,19.83
2023-03-27T07:33:03.986Z,18.87
2023-03-27T07:38:06.207Z,17.80
2023-03-27T07:43:24.789Z,23.52
2023-03-27T07:48:27.881Z,18.80
2023-03-27T07:53:34.072Z,12.27
2023-03-27T07:58:41.996Z,14.43
2023-03-27T08:03:43.106Z,26.37
2023-03-27T08:08:45.035Z,19.85
2023-03-27T08:13:46.106Z,17.85
2023-03-27T08:18:48.895Z,15.20
2023-03-27T08:23:50.384Z,17.40
2023-03-27T08:29:24.453Z,17.48
2023-03-27T08:34:27.229Z,14.13
2023-03-27T08:39:29.956Z,9.95
2023-03-27T08:44:37.581Z,15.13
2023-03-27T08:49:51.840Z,20.98
2023-03-27T08:55:42.032Z,14.05
2023-03-27T09:01:00.165Z,16.98
2023-03-27T09:06:09.799Z,14.35
2023-03-27T09:12:49.784Z,13.70
2023-03-27T09:21:05.068Z,11.38
2023-03-27T09:26:13.187Z,10.50
2023-03-27T09:31:43.811Z,8.60
2023-03-27T09:36:44.952Z,7.32
2023-03-27T09:41:50.518Z,8.77
2023-03-27T09:47:13.511Z,8.07
2023-03-27T09:52:41.091Z,12.63
2023-03-27T09:58:09.252Z,7.35
2023-03-27T10:03:17.121Z,9.35
2023-03-27T10:08:41.278Z,5.00
2023-03-27T10:13:58.402Z,6.53
2023-03-27T10:19:00.050Z,7.82
2023-03-27T10:24:26.307Z,8.32
2023-03-27T10:30:34.850Z,9.43
2023-03-27T10:35:58.172Z,11.30
2023-03-27T10:41:11.262Z,7.45
2023-03-27T10:46:22.330Z,5.47
2023-03-27T10:53:45.079Z,4.87
2023-03-27T10:59:00.997Z,7.35
2023-03-27T11:05:43.718Z,9.80
2023-03-27T11:10:57.403Z,4.78
2023-03-27T11:16:26.490Z,4.62
2023-03-27T11:25:15.831Z,4.65
2023-03-27T11:30:31.152Z,32.13
2023-03-27T11:35:37.684Z,5.90
2023-03-27T11:41:04.142Z,5.20
2023-03-27T11:46:28.979Z,4.82
2023-03-27T11:52:20.142Z,5.32
2023-03-27T11:57:26.192Z,2.58
2023-03-27T12:04:21.667Z,2.92
2023-03-27T12:11:06.400Z,4.12
2023-03-27T12:18:10.319Z,4.03
2023-03-27T12:24:59.954Z,4.28
2023-03-27T12:30:57.962Z,6.30
2023-03-27T12:36:05.386Z,7.30
2023-03-27T12:41:42.877Z,3.67
2023-03-27T12:47:23.248Z,5.10
2023-03-27T12:52:32.095Z,7.10
2023-03-27T12:57:46.226Z,6.45
2023-03-27T13:06:11.874Z,6.72
2023-03-27T13:18:10.305Z,8.35
2023-03-27T13:30:00.894Z,7.90
2023-03-27T13:35:32.107Z,7.20
2023-03-27T13:40:39.794Z,6.57
2023-03-27T13:45:51.393Z,6.97
2023-03-27T13:51:40.344Z,2.55
2023-03-27T13:59:57.455Z,9.75
2023-03-27T14:05:30.966Z,3.80
2023-03-27T14:11:26.754Z,13.45
2023-03-27T14:16:50.629Z,8.68
2023-03-27T14:22:00.876Z,11.35
2023-03-27T14:27:06.401Z,7.60
2023-03-27T14:32:13.221Z,4.05
2023-03-27T14:37:28.372Z,4.03
2023-03-27T14:42:33.055Z,4.00
2023-03-27T14:47:35.251Z,22.75
2023-03-27T14:52:37.025Z,8.27
2023-03-27T15:03:15.668Z,2.78
2023-03-27T15:08:18.952Z,3.67
2023-03-27T15:14:41.229Z,4.80
2023-03-27T15:19:48.429Z,3.58
2023-03-27T15:25:02.102Z,4.22
2023-03-27T15:30:28.195Z,6.10
2023-03-27T15:35:41.108Z,6.75
2023-03-27T15:40:45.775Z,4.22
2023-03-27T15:46:19.803Z,3.95
2023-03-27T15:51:30.259Z,4.80
2023-03-27T15:56:40.530Z,7.00
2023-03-27T16:01:52.426Z,4.87
2023-03-27T16:07:05.293Z,7.15
2023-03-27T16:12:09.836Z,3.22
2023-03-27T16:17:19.892Z,1.83
2023-03-27T16:22:32.449Z,3.30
2023-03-27T16:27:58.216Z,7.30
2023-03-27T16:32:59.654Z,4.37
2023-03-27T16:38:01.503Z,5.05
2023-03-27T16:43:02.351Z,7.82
2023-03-27T16:48:03.752Z,6.43
2023-03-27T16:53:04.981Z,3.40
2023-03-27T16:58:05.933Z,4.20
2023-03-27T17:03:06.825Z,6.05
2023-03-27T17:08:08.068Z,4.03
2023-03-27T17:13:09.049Z,4.20
2023-03-27T17:18:10.204Z,4.87
2023-03-27T17:23:11.546Z,5.12
2023-03-27T17:28:12.965Z,5.55
2023-03-27T17:33:13.813Z,7.22
2023-03-27T17:38:18.204Z,32.92
2023-03-27T17:43:19.016Z,7.85
2023-03-27T17:48:19.833Z,10.45
2023-03-27T17:53:21.221Z,11.05
2023-03-27T17:58:22.585Z,6.55
2023-03-27T18:03:23.478Z,3.78
2023-03-27T18:08:24.439Z,7.12
2023-03-27T18:13:26.605Z,9.43
2023-03-27T18:18:27.381Z,4.05
2023-03-27T18:23:28.502Z,3.67
2023-03-27T18:28:29.231Z,6.40
2023-03-27T18:33:31.202Z,3.92
2023-03-27T18:38:32.131Z,6.43
2023-03-27T18:43:33.164Z,4.35
2023-03-27T18:48:34.895Z,6.40
2023-03-27T18:53:36.108Z,9.50
2023-03-27T18:58:37.282Z,14.82
2023-03-27T19:03:39.819Z,13.62
2023-03-27T19:08:42.733Z,12.05
2023-03-27T19:13:43.965Z,7.20
2023-03-27T19:18:51.066Z,13.27
2023-03-27T19:24:13.521Z,7.15
2023-03-27T19:29:17.626Z,7.87
2023-03-27T19:34:18.695Z,7.32
2023-03-27T19:39:22.813Z,9.20
2023-03-27T19:44:23.695Z,5.32
2023-03-27T19:49:24.878Z,7.97
2023-03-27T19:54:38.863Z,5.72
2023-03-27T19:59:39.822Z,10.05
2023-03-27T20:04:40.890Z,7.18
2023-03-27T20:09:41.679Z,8.82
2023-03-27T20:14:43.666Z,6.82
2023-03-27T20:19:49.452Z,10.25
2023-03-27T20:24:50.407Z,5.90
2023-03-27T20:29:51.232Z,14.98
2023-03-27T20:34:53.930Z,27.60
2023-03-27T20:39:54.714Z,17.05
2023-03-27T20:44:58.128Z,6.15
2023-03-27T20:50:02.924Z,8.50
2023-03-27T20:55:04.335Z,8.23
2023-03-27T21:00:07.007Z,10.85
2023-03-27T21:05:08.052Z,17.92
2023-03-27T21:15:13.129Z,14.00
2023-03-27T21:20:14.046Z,8.95
2023-03-27T21:25:15.129Z,3.47
2023-03-27T21:30:16.585Z,5.82
2023-03-27T21:35:17.653Z,10.85
2023-03-27T21:40:18.585Z,8.63
2023-03-27T21:45:19.757Z,7.95
2023-03-27T21:50:20.557Z,9.10
2023-03-27T21:55:25.316Z,9.52
2023-03-27T22:00:26.398Z,7.35
2023-03-27T22:05:27.185Z,11.93
2023-03-27T22:10:27.969Z,6.30
2023-03-27T22:15:29.349Z,11.20
2023-03-27T22:20:30.640Z,8.80
2023-03-27T22:25:31.530Z,10.40
2023-03-27T22:30:32.322Z,14.50
2023-03-27T22:35:33.193Z,8.23
2023-03-27T22:40:36.756Z,13.80
2023-03-27T22:45:37.536Z,7.25
2023-03-27T22:50:38.800Z,19.42
2023-03-27T22:55:40.013Z,10.48
2023-03-27T23:00:40.859Z,11.52
2023-03-27T23:05:44.600Z,10.05
2023-03-27T23:10:45.598Z,18.12
2023-03-27T23:15:46.428Z,8.43
2023-03-27T23:20:47.266Z,11.68
2023-03-27T23:25:48.365Z,20.83
2023-03-27T23:30:58.131Z,10.80
2023-03-27T23:36:02.199Z,14.45
2023-03-27T23:41:08.305Z,8.88
2023-03-27T23:46:12.427Z,10.90
2023-03-27T23:51:15.599Z,14.70
